Flight Track Log - Related Links

Times and Time Zones

All times are in EDT time to prevent confusion due to time zone crossing. See the TCF3487 flight status page for this flight to view local times or setup timezone preferences in your user account.

Time Position Orientation Groundspeed Altitude Reporting Facility
EDT Latitude Longitude Course Direction KTS MPH feet Rate Location/Type
Wed 09:07:40 AM 38.9167 -77.4833 78° East 208 239 2,500  Level Potomac TRACON
Wed 09:08:40 AM 38.9667 -77.5500 314° West 272 313 5,100 2,368 Climbing Potomac TRACON
Wed 09:09:00 AM 39.0245 -76.9188 72° East  Level FlightAware Approximate
Wed 09:09:34 AM 39.0333 -77.5667 349° North 286 329 7,000  Level Potomac TRACON
Wed 09:10:00 AM 39.0500 -76.7862 90° East  Level FlightAware Approximate
Wed 09:10:34 AM 39.1000 -77.5333 21° North 308 354 8,100  Level Potomac TRACON
Wed 09:11:00 AM 39.0763 -76.6543 67° East  Level FlightAware Approximate
Wed 09:11:34 AM 39.1500 -77.4500 52° Northeast 309 356 10,000  Level Potomac TRACON
Wed 09:12:00 AM 39.0912 -76.5194 78° East  Level FlightAware Approximate
Wed 09:13:00 AM 39.1137 -76.3846 78° East  Level FlightAware Approximate
Wed 09:13:54 AM 39.1172 -77.2075 100° East 327 376 13,400  Level Washington Center
Wed 09:14:54 AM 39.0917 -77.0972 107° East 321 369 15,900 2,262 Climbing Washington Center
Wed 09:15:56 AM 39.0806 -76.9686 96° East 321 369 18,000 2,370 Climbing Washington Center
Wed 09:16:53 AM 39.1069 -76.8489 74° East 331 381 20,600 2,441 Climbing Washington Center
Wed 09:17:54 AM 39.1144 -76.7178 86° East 343 395 22,800 1,190 Climbing Washington Center
Wed 09:18:54 AM 39.1239 -76.5897 85° East 358 412 23,000 99 Climbing Washington Center
Wed 09:19:55 AM 39.1333 -76.4453 85° East 363 418 23,000  Level Washington Center
Wed 09:20:56 AM 39.1403 -76.3247 86° East 369 425 23,000  Level Washington Center
Wed 09:21:56 AM 39.1514 -76.1964 84° East 369 425 23,000 153 Level Washington Center
Wed 09:22:54 AM 39.1731 -76.0519 79° East 369 425 23,300 1,109 Climbing Washington Center
Wed 09:23:55 AM 39.1900 -75.9183 81° East 369 425 25,200 1,750 Climbing Washington Center
Wed 09:24:54 AM 39.2486 -75.8086 55° Northeast 360 414 26,800 900 Climbing Washington Center
Wed 09:25:55 AM 39.3239 -75.7122 45° Northeast 359 413 27,000 63 Climbing Washington Center
Wed 09:28:03 AM 39.4803 -75.5103 45° Northeast 383 441 27,000  Level New York Center
Wed 09:29:03 AM 39.5550 -75.4156 44° Northeast 383 441 27,000  Level New York Center
Wed 09:30:05 AM 39.6300 -75.3156 46° Northeast 383 441 27,000  Level New York Center
Wed 09:31:05 AM 39.7025 -75.2150 47° Northeast 383 441 27,000  Level New York Center
Wed 09:32:03 AM 39.7842 -75.0931 49° Northeast 389 448 27,000  Level New York Center
Wed 09:33:03 AM 39.8522 -74.9972 47° Northeast 389 448 27,000  Level New York Center
Wed 09:34:03 AM 39.9247 -74.8961 47° Northeast 383 441 27,000  Level New York Center
Wed 09:35:03 AM 39.9911 -74.7861 52° Northeast 377 434 27,000  Level New York Center
Wed 09:36:03 AM 40.0553 -74.6761 53° Northeast 377 434 27,000  Level New York Center
Wed 09:37:04 AM 40.1153 -74.5600 56° Northeast 377 434 27,000  Level New York Center
Wed 09:38:04 AM 40.1772 -74.4439 55° Northeast 382 440 27,000  Level New York Center
Wed 09:39:05 AM 40.2369 -74.3328 55° Northeast 387 445 27,000  Level New York Center
Wed 09:40:03 AM 40.3008 -74.2189 54° Northeast 387 445 27,000  Level New York Center
Wed 09:41:42 AM 40.3967 -74.0369 55° Northeast 405 466 27,000 -151 Level Boston Center
Wed 09:42:42 AM 40.4586 -73.9292 53° Northeast 385 443 26,600 -1,250 Descending Boston Center
Wed 09:43:42 AM 40.5206 -73.8161 54° Northeast 385 443 24,500 -2,050 Descending Boston Center
Wed 09:44:42 AM 40.5803 -73.7053 55° Northeast 375 432 22,500 -1,950 Descending Boston Center
Wed 09:45:42 AM 40.6397 -73.5889 56° Northeast 375 432 20,600 -1,750 Descending Boston Center
Wed 09:46:42 AM 40.7014 -73.4747 55° Northeast 375 432 19,000 -800 Descending Boston Center
Wed 09:47:42 AM 40.7669 -73.3525 55° Northeast 385 443 19,000  Level Boston Center
Wed 09:48:42 AM 40.8428 -73.2494 46° Northeast 390 449 19,000  Level Boston Center
Wed 09:49:42 AM 40.9247 -73.1517 42° Northeast 390 449 19,000 -350 Level Boston Center
Wed 09:50:42 AM 41.0086 -73.0533 41° Northeast 390 449 18,300 -1,400 Descending Boston Center
Wed 09:51:42 AM 41.0906 -72.9606 40° Northeast 390 449 16,200 -2,100 Descending Boston Center
Wed 09:52:42 AM 41.1764 -72.8592 42° Northeast 385 443 14,100 -2,104 Descending Boston Center
Wed 09:52:59 AM 41.1994 -72.8319 42° Northeast 371 427 13,500 -1,800 Descending Boston Center
Wed 09:53:42 AM 41.2558 -72.7825 33° Northeast 372 428 12,300 -1,727 Descending Boston Center
Wed 09:54:05 AM 41.2911 -72.7881 353° North 336 387 11,600 -1,300 Descending Boston Center
Wed 09:54:42 AM 41.3475 -72.7883 360° North 321 369 11,000 -590 Descending Boston Center
Wed 09:55:06 AM 41.3869 -72.7858 North 331 381 11,000 -493 Level Boston Center
Wed 09:55:55 AM 41.4578 -72.7892 358° North 312 359 10,400 -750 Descending Boston Center
Wed 09:56:50 AM 41.5119 -72.8447 322° Northwest 272 313 9,700 -843 Descending Boston Center
Wed 09:57:56 AM 41.5761 -72.9119 322° Northwest 283 326 8,700 -893 Descending Boston Center
Wed 09:58:51 AM 41.6450 -72.9261 351° North 266 306 7,900 -896 Descending Boston Center
Wed 10:00:10 AM 41.7200 -72.8933 18° North 261 300 6,700 -938 Descending Boston Center
Wed 10:00:59 AM 41.7328 -72.8183 77° East 259 298 5,900 -826 Descending Boston Center
Wed 10:01:59 AM 41.7478 -72.7239 78° East 243 280 5,200 -645 Descending Boston Center
Wed 10:03:00 AM 41.7583 -72.6517 79° East 197 227 4,600 -879 Descending Boston Center
Wed 10:03:55 AM 41.7689 -72.5847 78° East 192 221 3,500 -1,033 Descending Boston Center
Wed 10:05:02 AM 41.8086 -72.5319 45° Northeast 188 216 2,500 -896 Descending Boston Center

Login

Don't have an account? Register now (free) for customized features, flight alerts, and more!